Terminal Aerodrome Forecast
Issued by NWS

Home | Current Version | Previous Version | Text Only | Print | Product List | Glossary On
Versions: 1 2 3 4 5 6 7 8 9 10 11 12 13 14 15 16 17 18 19 20
000
FTUS41 KILN 251800 AAB
TAFLUK
TAF AMD
KLUK 251856Z 2519/2618 21015G24KT P6SM VCSH SCT027 BKN100
      TEMPO 2519/2522 -SHRA FEW028 BKN040 OVC090
     FM252300 19008KT P6SM BKN060
     FM261000 16004KT 5SM BR BKN035
     FM261300 20009KT P6SM SCT035=

USA.gov is the U.S. government's official web portal to all federal, state and local government web resources and services.